(°C)
17°
16°
16°
16°
16°
16°
16°
(°C)
16°
16°
16°
16°
16°
16°
16°
NW
NW
NW
NW
NW
NW
WNW
(km/h)
7-12
6-12
6-11
5-10
4-10
4-9
3-8
(mm)
0
0
0
0
0
0
0
(%)
2
2
1
1
4
7
10

Sonnenhöhe

/ -33.3°
sun-icon
UV 7
05:42
19:49
Abnehmender Halbmond (327°)
04:05
17:30

METAR für San Diego (KSAN)

Zeit Bedingungen Temperatur/
Taupunkt
Wind Sichtweite Wetter Wolken Druck Änderung Roh
MVFR 16.7°C / 12.2°C 320º 5kt >10km - Broken Clouds 2300ft
Broken Clouds 25000ft
1015 - KSAN 280551Z 32005KT 10SM BKN023 BKN250 17/12 A3000 RMK AO2 SLP158 T01670122 10183 20167 50003
MVFR 16.7°C / 12.2°C 320º 6kt >10km - Broken Clouds 2000ft
Broken Clouds 25000ft
1015 - KSAN 280451Z 32006KT 10SM BKN020 BKN250 17/12 A3000 RMK AO2 SLP159 T01670122
MVFR 16.7°C / 12.2°C 300º 5kt >10km - Broken Clouds 1900ft
Broken Clouds 25000ft
1015 - KSAN 280351Z 30005KT 10SM BKN019 BKN250 17/12 A3000 RMK AO2 SLP157 T01670122
MVFR 16.7°C / 12.2°C 300º 5kt >10km - Broken Clouds 1900ft
Broken Clouds 25000ft
- KSAN 280326Z 30005KT 10SM BKN019 BKN250 17/12 A2999 RMK AO2 T01670122
VFR 16.7°C / 12.2°C 290º 7kt >10km - Scattered Clouds 2000ft
Broken Clouds 25000ft
1015 - KSAN 280251Z 29007KT 10SM SCT020 BKN250 17/12 A2999 RMK AO2 SLP155 T01670122 55006
VFR 16.7°C / 11.1°C 290º 6kt >10km - Few Clouds 2500ft
Broken Clouds 25000ft
1015 - KSAN 280151Z 29006KT 10SM FEW025 BKN250 17/11 A2999 RMK AO2 SLP155 T01670111
VFR 17.8°C / 11.1°C 290º 8kt >10km - Few Clouds 2500ft
Broken Clouds 25000ft
1015 - KSAN 280051Z 29008KT 10SM FEW025 BKN250 18/11 A3000 RMK AO2 SLP157 T01780111
VFR 18.3°C / 11.7°C 310º 8kt >10km - Few Clouds 2500ft
Broken Clouds 25000ft
1016 - KSAN 272351Z 31008KT 10SM FEW025 BKN250 18/12 A3001 RMK AO2 SLP161 T01830117 10200 20178 56013
VFR 18.9°C / 11.7°C 300º 8kt >10km - Few Clouds 2500ft
Broken Clouds 25000ft
1016 - KSAN 272251Z 30008KT 10SM FEW025 BKN250 19/12 A3001 RMK AO2 SLP163 T01890117
VFR 18.9°C / 11.1°C 300º 8kt >10km - Few Clouds 2500ft
Scattered Clouds 25000ft
1017 - KSAN 272151Z 30008KT 10SM FEW025 SCT250 19/11 A3003 RMK AO2 SLP170 T01890111
VFR 18.9°C / 11.7°C 280º variable 240º to 310º 9kt >10km - Clear 1017 - KSAN 272051Z 28009KT 240V310 10SM CLR 19/12 A3005 RMK AO2 SLP174 T01890117 58011
VFR 18.9°C / 11.1°C 260º 7kt Gust 15kt >10km - Few Clouds 2700ft
Scattered Clouds 25000ft
1017 - KSAN 271951Z 26007G15KT 10SM FEW027 SCT250 19/11 A3006 RMK AO2 SLP178 T01890111
MVFR 19.4°C / 11.1°C 310º 6kt >10km - Broken Clouds 3000ft 1018 - KSAN 271851Z 31006KT 10SM BKN030 19/11 A3008 RMK AO2 SLP184 T01940111
MVFR 18.3°C / 10.6°C 280º 8kt >10km - Broken Clouds 3000ft - KSAN 271837Z 28008KT 10SM BKN030 18/11 A3007 RMK AO2 T01830106
MVFR 17.8°C / 11.1°C 320º 3kt >10km - Overcast 2700ft 1018 - KSAN 271751Z 32003KT 10SM OVC027 18/11 A3008 RMK AO2 SLP185 T01780111 10178 20156 51010
MVFR 16.7°C / 11.1°C 280º 4kt >10km - Overcast 2300ft 1018 - KSAN 271651Z 28004KT 10SM OVC023 17/11 A3007 RMK AO2 SLP183 T01670111
MVFR 16.1°C / 11.1°C 300º 5kt >10km - Overcast 2100ft 1018 - KSAN 271551Z 30005KT 10SM OVC021 16/11 A3007 RMK AO2 SLP181 T01610111
MVFR 16.1°C / 11.7°C variable 5kt >10km - Overcast 1800ft 1017 - KSAN 271451Z VRB05KT 10SM OVC018 16/12 A3005 RMK AO2 SLP175 T01610117 51013
MVFR 15.6°C / 11.7°C 270º 7kt >10km - Overcast 1700ft 1017 - KSAN 271351Z 27007KT 10SM OVC017 16/12 A3004 RMK AO2 SLP172 T01560117
MVFR 16.1°C / 12.2°C 270º 6kt >10km - Overcast 1700ft 1016 - KSAN 271251Z 27006KT 10SM OVC017 16/12 A3002 RMK AO2 SLP166 T01610122
MVFR 15.6°C / 12.2°C 320º 4kt >10km - Overcast 1800ft 1016 - KSAN 271151Z 32004KT 10SM OVC018 16/12 A3001 RMK AO2 SLP162 T01560122 10161 20156 55002
MVFR 16.1°C / 11.7°C variable 0kt >10km - Overcast 1900ft 1016 - KSAN 271051Z 00000KT 10SM OVC019 16/12 A3001 RMK AO2 SLP161 T01610117
MVFR 16.1°C / 11.7°C 290º 3kt >10km - Overcast 1800ft 1016 - KSAN 270951Z 29003KT 10SM OVC018 16/12 A3001 RMK AO2 SLP162 T01610117
MVFR 16.1°C / 12.2°C variable 3kt >10km - Overcast 1900ft 1016 - KSAN 270851Z VRB03KT 10SM OVC019 16/12 A3002 RMK AO2 SLP164 T01610122 58009

MVFR

16.7°C / 12.2°C

[Mehr]
Wind 320º 5kt
Sichtweite >10km
Wetter -
Wolken Broken Clouds 2300ft
Broken Clouds 25000ft
Druck 1015
Änderung -
Roh KSAN 280551Z 32005KT 10SM BKN023 BKN250 17/12 A3000 RMK AO2 SLP158 T01670122 10183 20167 50003

MVFR

16.7°C / 12.2°C

[Mehr]
Wind 320º 6kt
Sichtweite >10km
Wetter -
Wolken Broken Clouds 2000ft
Broken Clouds 25000ft
Druck 1015
Änderung -
Roh KSAN 280451Z 32006KT 10SM BKN020 BKN250 17/12 A3000 RMK AO2 SLP159 T01670122

MVFR

16.7°C / 12.2°C

[Mehr]
Wind 300º 5kt
Sichtweite >10km
Wetter -
Wolken Broken Clouds 1900ft
Broken Clouds 25000ft
Druck 1015
Änderung -
Roh KSAN 280351Z 30005KT 10SM BKN019 BKN250 17/12 A3000 RMK AO2 SLP157 T01670122

MVFR

16.7°C / 12.2°C

[Mehr]
Wind 300º 5kt
Sichtweite >10km
Wetter -
Wolken Broken Clouds 1900ft
Broken Clouds 25000ft
Druck
Änderung -
Roh KSAN 280326Z 30005KT 10SM BKN019 BKN250 17/12 A2999 RMK AO2 T01670122

VFR

16.7°C / 12.2°C

[Mehr]
Wind 290º 7kt
Sichtweite >10km
Wetter -
Wolken Scattered Clouds 2000ft
Broken Clouds 25000ft
Druck 1015
Änderung -
Roh KSAN 280251Z 29007KT 10SM SCT020 BKN250 17/12 A2999 RMK AO2 SLP155 T01670122 55006

VFR

16.7°C / 11.1°C

[Mehr]
Wind 290º 6kt
Sichtweite >10km
Wetter -
Wolken Few Clouds 2500ft
Broken Clouds 25000ft
Druck 1015
Änderung -
Roh KSAN 280151Z 29006KT 10SM FEW025 BKN250 17/11 A2999 RMK AO2 SLP155 T01670111

VFR

17.8°C / 11.1°C

[Mehr]
Wind 290º 8kt
Sichtweite >10km
Wetter -
Wolken Few Clouds 2500ft
Broken Clouds 25000ft
Druck 1015
Änderung -
Roh KSAN 280051Z 29008KT 10SM FEW025 BKN250 18/11 A3000 RMK AO2 SLP157 T01780111

VFR

18.3°C / 11.7°C

[Mehr]
Wind 310º 8kt
Sichtweite >10km
Wetter -
Wolken Few Clouds 2500ft
Broken Clouds 25000ft
Druck 1016
Änderung -
Roh KSAN 272351Z 31008KT 10SM FEW025 BKN250 18/12 A3001 RMK AO2 SLP161 T01830117 10200 20178 56013

VFR

18.9°C / 11.7°C

[Mehr]
Wind 300º 8kt
Sichtweite >10km
Wetter -
Wolken Few Clouds 2500ft
Broken Clouds 25000ft
Druck 1016
Änderung -
Roh KSAN 272251Z 30008KT 10SM FEW025 BKN250 19/12 A3001 RMK AO2 SLP163 T01890117

VFR

18.9°C / 11.1°C

[Mehr]
Wind 300º 8kt
Sichtweite >10km
Wetter -
Wolken Few Clouds 2500ft
Scattered Clouds 25000ft
Druck 1017
Änderung -
Roh KSAN 272151Z 30008KT 10SM FEW025 SCT250 19/11 A3003 RMK AO2 SLP170 T01890111

VFR

18.9°C / 11.7°C

[Mehr]
Wind 280º variable 240º to 310º 9kt
Sichtweite >10km
Wetter -
Wolken Clear
Druck 1017
Änderung -
Roh KSAN 272051Z 28009KT 240V310 10SM CLR 19/12 A3005 RMK AO2 SLP174 T01890117 58011

VFR

18.9°C / 11.1°C

[Mehr]
Wind 260º 7kt Gust 15kt
Sichtweite >10km
Wetter -
Wolken Few Clouds 2700ft
Scattered Clouds 25000ft
Druck 1017
Änderung -
Roh KSAN 271951Z 26007G15KT 10SM FEW027 SCT250 19/11 A3006 RMK AO2 SLP178 T01890111

MVFR

19.4°C / 11.1°C

[Mehr]
Wind 310º 6kt
Sichtweite >10km
Wetter -
Wolken Broken Clouds 3000ft
Druck 1018
Änderung -
Roh KSAN 271851Z 31006KT 10SM BKN030 19/11 A3008 RMK AO2 SLP184 T01940111

MVFR

18.3°C / 10.6°C

[Mehr]
Wind 280º 8kt
Sichtweite >10km
Wetter -
Wolken Broken Clouds 3000ft
Druck
Änderung -
Roh KSAN 271837Z 28008KT 10SM BKN030 18/11 A3007 RMK AO2 T01830106

MVFR

17.8°C / 11.1°C

[Mehr]
Wind 320º 3kt
Sichtweite >10km
Wetter -
Wolken Overcast 2700ft
Druck 1018
Änderung -
Roh KSAN 271751Z 32003KT 10SM OVC027 18/11 A3008 RMK AO2 SLP185 T01780111 10178 20156 51010

MVFR

16.7°C / 11.1°C

[Mehr]
Wind 280º 4kt
Sichtweite >10km
Wetter -
Wolken Overcast 2300ft
Druck 1018
Änderung -
Roh KSAN 271651Z 28004KT 10SM OVC023 17/11 A3007 RMK AO2 SLP183 T01670111

MVFR

16.1°C / 11.1°C

[Mehr]
Wind 300º 5kt
Sichtweite >10km
Wetter -
Wolken Overcast 2100ft
Druck 1018
Änderung -
Roh KSAN 271551Z 30005KT 10SM OVC021 16/11 A3007 RMK AO2 SLP181 T01610111

MVFR

16.1°C / 11.7°C

[Mehr]
Wind variable 5kt
Sichtweite >10km
Wetter -
Wolken Overcast 1800ft
Druck 1017
Änderung -
Roh KSAN 271451Z VRB05KT 10SM OVC018 16/12 A3005 RMK AO2 SLP175 T01610117 51013

MVFR

15.6°C / 11.7°C

[Mehr]
Wind 270º 7kt
Sichtweite >10km
Wetter -
Wolken Overcast 1700ft
Druck 1017
Änderung -
Roh KSAN 271351Z 27007KT 10SM OVC017 16/12 A3004 RMK AO2 SLP172 T01560117

MVFR

16.1°C / 12.2°C

[Mehr]
Wind 270º 6kt
Sichtweite >10km
Wetter -
Wolken Overcast 1700ft
Druck 1016
Änderung -
Roh KSAN 271251Z 27006KT 10SM OVC017 16/12 A3002 RMK AO2 SLP166 T01610122

MVFR

15.6°C / 12.2°C

[Mehr]
Wind 320º 4kt
Sichtweite >10km
Wetter -
Wolken Overcast 1800ft
Druck 1016
Änderung -
Roh KSAN 271151Z 32004KT 10SM OVC018 16/12 A3001 RMK AO2 SLP162 T01560122 10161 20156 55002

MVFR

16.1°C / 11.7°C

[Mehr]
Wind variable 0kt
Sichtweite >10km
Wetter -
Wolken Overcast 1900ft
Druck 1016
Änderung -
Roh KSAN 271051Z 00000KT 10SM OVC019 16/12 A3001 RMK AO2 SLP161 T01610117

MVFR

16.1°C / 11.7°C

[Mehr]
Wind 290º 3kt
Sichtweite >10km
Wetter -
Wolken Overcast 1800ft
Druck 1016
Änderung -
Roh KSAN 270951Z 29003KT 10SM OVC018 16/12 A3001 RMK AO2 SLP162 T01610117

MVFR

16.1°C / 12.2°C

[Mehr]
Wind variable 3kt
Sichtweite >10km
Wetter -
Wolken Overcast 1900ft
Druck 1016
Änderung -
Roh KSAN 270851Z VRB03KT 10SM OVC019 16/12 A3002 RMK AO2 SLP164 T01610122 58009

TAF für San Diego (KSAN)

From till


From till Wind 300º 5kt. Visibility 10km or more. Broken Clouds 1900ft. Broken Clouds 25000ft.
From till Wind 200º 3kt. Visibility 10km or more. Overcast 1800ft.
Temporarly from till Light Drizzle . Overcast 1500ft.
From till Wind 230º 9kt. Visibility 10km or more. Broken Clouds 2000ft.
From till Wind 230º 6kt. Visibility 10km or more. Overcast 2200ft.

Roh: KSAN 280520Z 2806/2912 30005KT P6SM BKN019 BKN250 FM281000 20003KT P6SM OVC018 TEMPO 2814/2818 -DZ OVC015 FM281800 23009KT P6SM BKN020 FM290200 23006KT P6SM OVC022

Radar- und Niederschlags-Nowcast für San Diego

Nieselregen
Leicht
Moderat
Stark
Sehr schwer
Hagel

Die Ortsmarkierung zeigt auf San Diego. Diese Animation zeigt das Niederschlagsradar der letzten Stunde, sowie eine 1h Vorhersage. Nieselregen und leichter Schneefall können für das Radar unsichtbar sein. Die Niederschlagsintensität ist farbcodiert von Hellblau bis Orange.

Aktuelle Satellitenbilder für San Diego, Vereinigte Staaten

Die Standortmarkierung ist platziert auf San Diego. [Mehr]

Das Echtzeit-Satellitenbild kombiniert sichtbares Licht während des Tages mit Infrarotstrahlung während der Nacht. Nachts ist das Bild nicht dunkel, da Infrarotstrahlung Temperaturunterschiede erkennen kann. Leider sind niedrige Wolken und Nebel nur schwer von den Bodentemperaturen zu unterscheiden und können daher nachts fast unsichtbar sein. Meteosat-Satellitenbilder für Europa werden alle 5 Minuten in Echtzeit aktualisiert. Die Bilder GOES-16 / GOES-17 (Nord- und Südamerika) und Himawari (Asien) werden alle 10 Minuten aktualisiert.

Zum Anfang